Time;durP1;ratioP1;P1;durP2;ratioP2;P2;SDS_P1;SDS_P2;PMS_P1;PMS_P2;Temp;Humidity;BMP_temperature;BMP_pressure;BME280_temperature;BME280_humidity;BME280_pressure;Samples;Min_cycle;Max_cycle;Signal;HPM_P1;HPM_P2
2022/02/08 00:00:05;;;;;;;8.30;5.35;;;;;;;;;;5025312;28;20189;-83
2022/02/08 00:02:34;;;;;;;17.00;6.30;;;;;;;;;;5021192;28;20190;-83
2022/02/08 00:05:00;;;;;;;14.80;5.90;;;;;;;;;;5035929;28;20186;-83
2022/02/08 00:07:28;;;;;;;13.70;6.20;;;;;;;;;;5032681;28;20227;-83
2022/02/08 00:09:54;;;;;;;9.18;5.78;;;;;;;;;;5019104;28;20193;-82
2022/02/08 00:12:20;;;;;;;15.10;5.50;;;;;;;;;;5020463;28;20203;-83
2022/02/08 00:14:48;;;;;;;7.85;5.13;;;;;;;;;;5035983;28;20190;-83
2022/02/08 00:17:14;;;;;;;10.88;6.57;;;;;;;;;;5035831;28;20206;-83
2022/02/08 00:19:40;;;;;;;9.85;4.10;;;;;;;;;;5034397;28;20671;-81
2022/02/08 00:22:06;;;;;;;12.48;5.00;;;;;;;;;;5039059;28;20245;-83
2022/02/08 00:24:33;;;;;;;8.93;4.60;;;;;;;;;;5028894;28;20188;-83
2022/02/08 00:26:59;;;;;;;14.07;5.68;;;;;;;;;;5031769;28;20262;-82
2022/02/08 00:29:25;;;;;;;11.70;5.93;;;;;;;;;;5026017;28;20212;-81
2022/02/08 00:31:51;;;;;;;9.02;4.68;;;;;;;;;;5046346;28;20215;-82
2022/02/08 00:34:17;;;;;;;8.95;4.68;;;;;;;;;;5025970;28;20190;-81
2022/02/08 00:36:43;;;;;;;10.05;4.25;;;;;;;;;;5034814;28;20752;-83
2022/02/08 00:39:10;;;;;;;13.85;5.63;;;;;;;;;;5031844;28;20272;-82
2022/02/08 00:41:37;;;;;;;18.25;6.95;;;;;;;;;;5041447;28;20580;-83
2022/02/08 00:46:46;;;;;;;10.98;4.45;;;;;;;;;;5013655;28;20183;-82
2022/02/08 00:49:13;;;;;;;7.00;3.90;;;;;;;;;;5027258;28;20202;-82
2022/02/08 00:51:52;;;;;;;14.07;4.85;;;;;;;;;;5024720;28;20183;-81
2022/02/08 00:54:18;;;;;;;8.48;4.30;;;;;;;;;;5037935;28;20194;-83
2022/02/08 00:56:45;;;;;;;12.85;3.63;;;;;;;;;;5013043;28;20241;-82
2022/02/08 00:59:11;;;;;;;7.30;3.95;;;;;;;;;;5025745;28;20175;-83
2022/02/08 01:01:38;;;;;;;6.53;4.13;;;;;;;;;;5029048;28;20203;-82
2022/02/08 01:04:09;;;;;;;9.48;4.22;;;;;;;;;;5029976;28;20608;-81
2022/02/08 01:06:36;;;;;;;8.15;4.05;;;;;;;;;;5029584;28;20210;-81
2022/02/08 01:09:14;;;;;;;10.52;4.22;;;;;;;;;;5044138;28;20213;-81
2022/02/08 01:11:42;;;;;;;9.40;4.72;;;;;;;;;;5040881;28;20225;-82
2022/02/08 01:14:08;;;;;;;13.02;4.15;;;;;;;;;;5010473;28;20175;-81
2022/02/08 01:16:34;;;;;;;12.80;4.07;;;;;;;;;;5056803;28;20177;-83
2022/02/08 01:19:01;;;;;;;9.30;5.85;;;;;;;;;;5032016;28;20191;-82
2022/02/08 01:21:30;;;;;;;12.63;4.82;;;;;;;;;;5010612;28;20258;-80
2022/02/08 01:23:56;;;;;;;14.55;4.55;;;;;;;;;;5025044;28;20207;-81
2022/02/08 01:26:22;;;;;;;7.55;5.07;;;;;;;;;;5041014;28;20181;-82
2022/02/08 01:28:56;;;;;;;13.18;4.15;;;;;;;;;;5026763;28;20213;-82
2022/02/08 01:31:23;;;;;;;6.60;4.50;;;;;;;;;;5029490;28;20183;-82
2022/02/08 01:39:12;;;;;;;8.07;3.70;;;;;;;;;;5028996;28;20313;-82
2022/02/08 01:47:01;;;;;;;4.57;2.92;;;;;;;;;;5006552;28;20246;-82
2022/02/08 01:49:32;;;;;;;4.75;3.22;;;;;;;;;;5026695;28;20189;-84
2022/02/08 01:52:01;;;;;;;15.23;4.00;;;;;;;;;;5024083;28;20674;-82
2022/02/08 01:54:28;;;;;;;8.70;3.40;;;;;;;;;;5022167;28;20199;-83
2022/02/08 01:56:54;;;;;;;10.50;5.95;;;;;;;;;;5019959;28;20206;-82
2022/02/08 01:59:21;;;;;;;8.43;3.15;;;;;;;;;;5023859;28;20189;-82
2022/02/08 02:01:47;;;;;;;9.63;4.20;;;;;;;;;;5026465;28;20303;-82
2022/02/08 02:04:13;;;;;;;8.75;3.40;;;;;;;;;;5028986;28;20191;-81
2022/02/08 02:06:40;;;;;;;8.32;2.70;;;;;;;;;;5030053;28;20187;-82
2022/02/08 02:09:06;;;;;;;15.02;3.95;;;;;;;;;;5029491;28;20187;-82
2022/02/08 02:11:32;;;;;;;5.63;3.10;;;;;;;;;;5024073;28;20542;-83
2022/02/08 02:13:59;;;;;;;7.93;3.25;;;;;;;;;;5025201;28;20183;-82
2022/02/08 02:16:41;;;;;;;7.50;3.88;;;;;;;;;;5034877;28;20241;-82
2022/02/08 02:19:07;;;;;;;7.25;3.05;;;;;;;;;;5023023;28;20190;-83
2022/02/08 02:21:33;;;;;;;7.93;2.80;;;;;;;;;;5029964;28;20369;-81
2022/02/08 02:24:00;;;;;;;6.95;2.72;;;;;;;;;;5027587;28;20644;-82
2022/02/08 02:26:26;;;;;;;6.57;3.47;;;;;;;;;;5009230;28;20217;-82
2022/02/08 02:28:52;;;;;;;5.65;2.78;;;;;;;;;;5039661;28;20176;-83
2022/02/08 02:31:18;;;;;;;8.00;3.17;;;;;;;;;;5024058;28;20187;-81
2022/02/08 02:33:44;;;;;;;4.40;2.70;;;;;;;;;;5022675;28;20202;-83
2022/02/08 02:36:12;;;;;;;7.53;3.30;;;;;;;;;;5040718;28;20214;-83
2022/02/08 02:38:38;;;;;;;9.52;3.30;;;;;;;;;;5037381;28;20242;-83
2022/02/08 02:41:04;;;;;;;8.38;3.25;;;;;;;;;;5023294;28;20211;-83
2022/02/08 02:43:30;;;;;;;7.65;3.20;;;;;;;;;;5044232;28;20206;-83
2022/02/08 02:46:00;;;;;;;6.03;2.70;;;;;;;;;;5026579;28;20187;-83
2022/02/08 02:48:26;;;;;;;6.55;3.13;;;;;;;;;;5023617;28;20247;-82
2022/02/08 02:50:53;;;;;;;6.63;3.40;;;;;;;;;;5035997;28;20183;-83
2022/02/08 02:53:20;;;;;;;6.03;2.60;;;;;;;;;;5022867;28;20191;-81
2022/02/08 02:55:46;;;;;;;6.88;3.13;;;;;;;;;;5037382;28;20183;-83
2022/02/08 02:58:12;;;;;;;10.38;3.20;;;;;;;;;;5037202;28;20182;-84
2022/02/08 03:00:43;;;;;;;7.15;2.67;;;;;;;;;;5018554;28;20285;-83
2022/02/08 03:19:21;;;;;;;6.63;2.90;;;;;;;;;;5008249;28;20194;-82
2022/02/08 03:21:47;;;;;;;6.07;3.35;;;;;;;;;;5027945;28;20256;-82
2022/02/08 03:24:13;;;;;;;6.15;3.47;;;;;;;;;;5020636;28;20190;-82
2022/02/08 03:26:39;;;;;;;4.60;2.95;;;;;;;;;;5020782;28;20190;-82
2022/02/08 03:29:06;;;;;;;8.18;4.20;;;;;;;;;;5007615;28;20182;-81
2022/02/08 03:31:31;;;;;;;9.70;3.80;;;;;;;;;;5041575;28;20220;-82
2022/02/08 03:33:57;;;;;;;8.38;2.78;;;;;;;;;;5014126;28;20622;-82
2022/02/08 03:36:24;;;;;;;7.38;3.05;;;;;;;;;;5026922;28;20191;-83
2022/02/08 03:39:03;;;;;;;7.47;2.92;;;;;;;;;;5021946;28;20215;-82
2022/02/08 03:41:36;;;;;;;5.93;2.88;;;;;;;;;;5052760;28;20214;-82
2022/02/08 03:44:02;;;;;;;14.15;3.67;;;;;;;;;;5047862;28;20254;-83
2022/02/08 03:46:30;;;;;;;5.50;3.40;;;;;;;;;;5022683;28;20622;-82
2022/02/08 03:48:56;;;;;;;4.95;2.53;;;;;;;;;;5024955;28;20174;-79
2022/02/08 03:51:25;;;;;;;6.85;2.60;;;;;;;;;;5040297;28;20186;-81
2022/02/08 03:53:51;;;;;;;10.20;3.08;;;;;;;;;;5029905;28;20183;-82
2022/02/08 03:56:21;;;;;;;9.35;3.15;;;;;;;;;;5022619;28;20182;-80
2022/02/08 03:58:47;;;;;;;8.45;3.13;;;;;;;;;;5008948;28;20175;-80
2022/02/08 04:01:58;;;;;;;7.82;2.65;;;;;;;;;;5036248;28;20221;-82
2022/02/08 04:06:52;;;;;;;9.15;3.33;;;;;;;;;;5013413;28;20182;-82
2022/02/08 04:09:18;;;;;;;9.90;3.25;;;;;;;;;;5022059;28;20187;-82
2022/02/08 04:12:53;;;;;;;8.68;3.17;;;;;;;;;;5031636;28;20547;-81
2022/02/08 04:33:56;;;;;;;9.02;3.85;;;;;;;;;;5000649;28;20242;-82
2022/02/08 04:36:44;;;;;;;8.07;3.22;;;;;;;;;;5003406;28;20652;-82
2022/02/08 04:39:16;;;;;;;5.10;2.88;;;;;;;;;;5000027;28;20313;-83
2022/02/08 04:44:26;;;;;;;8.90;3.33;;;;;;;;;;5000765;28;20195;-83
2022/02/08 04:49:36;;;;;;;5.07;3.17;;;;;;;;;;5004397;28;20190;-82
2022/02/08 04:52:06;;;;;;;3.78;2.75;;;;;;;;;;5000391;28;20187;-82
2022/02/08 05:43:06;;;;;;;4.22;2.75;;;;;;;;;;4926278;29;20217;-82
2022/02/08 05:45:36;;;;;;;5.55;2.25;;;;;;;;;;4995002;28;20241;-82
2022/02/08 05:48:08;;;;;;;5.72;2.40;;;;;;;;;;5041260;28;20180;-82
2022/02/08 05:50:44;;;;;;;6.82;3.03;;;;;;;;;;5023688;28;20197;-83
2022/02/08 05:53:29;;;;;;;2.65;2.33;;;;;;;;;;5024529;28;20194;-83
2022/02/08 05:55:55;;;;;;;4.25;2.45;;;;;;;;;;5053346;28;20181;-83
2022/02/08 05:58:22;;;;;;;4.30;2.20;;;;;;;;;;5025547;28;20171;-82
2022/02/08 06:00:48;;;;;;;8.43;2.30;;;;;;;;;;5031888;28;20241;-82
2022/02/08 06:03:15;;;;;;;4.82;1.80;;;;;;;;;;5013421;28;20199;-82
2022/02/08 06:05:41;;;;;;;4.78;2.53;;;;;;;;;;5022243;28;20178;-83
2022/02/08 06:08:07;;;;;;;5.50;2.75;;;;;;;;;;5010247;28;20171;-83
2022/02/08 06:10:34;;;;;;;3.80;2.70;;;;;;;;;;5026692;28;20182;-83
2022/02/08 06:13:00;;;;;;;4.93;2.30;;;;;;;;;;5043057;28;20441;-83
2022/02/08 06:15:27;;;;;;;3.40;2.50;;;;;;;;;;5035450;28;20448;-83
2022/02/08 06:17:55;;;;;;;6.60;1.77;;;;;;;;;;5028760;28;20206;-83
2022/02/08 06:20:21;;;;;;;1.75;1.50;;;;;;;;;;5039960;28;20491;-82
2022/02/08 06:22:47;;;;;;;2.85;1.70;;;;;;;;;;5042089;28;20170;-82
2022/02/08 06:25:15;;;;;;;3.35;1.92;;;;;;;;;;5027054;28;20185;-83
2022/02/08 06:27:42;;;;;;;2.45;1.80;;;;;;;;;;5028413;28;20532;-82
2022/02/08 06:30:09;;;;;;;4.32;1.75;;;;;;;;;;5025374;28;20201;-82
2022/02/08 06:32:35;;;;;;;3.65;2.13;;;;;;;;;;5036285;28;20178;-83
2022/02/08 06:35:07;;;;;;;6.90;2.05;;;;;;;;;;5037365;28;20190;-82
2022/02/08 06:37:36;;;;;;;2.55;1.70;;;;;;;;;;5023021;28;20376;-83
2022/02/08 06:40:02;;;;;;;1.73;1.50;;;;;;;;;;5023465;28;20211;-83
2022/02/08 06:42:28;;;;;;;3.63;1.98;;;;;;;;;;5035127;28;20187;-83
2022/02/08 06:44:54;;;;;;;3.72;1.60;;;;;;;;;;5027087;28;20186;-83
2022/02/08 06:47:20;;;;;;;1.70;1.60;;;;;;;;;;5049260;28;20542;-83
2022/02/08 06:49:46;;;;;;;3.35;2.50;;;;;;;;;;5038031;28;20655;-80
2022/02/08 06:52:12;;;;;;;4.95;1.95;;;;;;;;;;5028267;28;20191;-82
2022/02/08 06:54:38;;;;;;;2.13;1.93;;;;;;;;;;5023191;28;20259;-83
2022/02/08 06:57:05;;;;;;;3.97;1.92;;;;;;;;;;5023550;28;20821;-83
2022/02/08 06:59:37;;;;;;;3.28;2.10;;;;;;;;;;5023280;28;20185;-82
2022/02/08 07:02:03;;;;;;;3.33;1.77;;;;;;;;;;5037556;28;20199;-83
2022/02/08 07:04:29;;;;;;;3.15;2.42;;;;;;;;;;5044127;28;20490;-81
2022/02/08 07:06:55;;;;;;;1.92;1.65;;;;;;;;;;5012340;28;20258;-81
2022/02/08 07:09:21;;;;;;;3.23;2.37;;;;;;;;;;5033589;28;20650;-80
2022/02/08 07:11:48;;;;;;;2.22;1.48;;;;;;;;;;5023101;28;20496;-81
2022/02/08 07:14:14;;;;;;;3.25;1.90;;;;;;;;;;5007331;28;20225;-81
2022/02/08 07:16:40;;;;;;;2.67;2.03;;;;;;;;;;5026293;28;20198;-80
2022/02/08 07:19:06;;;;;;;3.78;2.13;;;;;;;;;;5037670;28;20220;-82
2022/02/08 07:21:34;;;;;;;2.35;2.15;;;;;;;;;;5021669;28;20230;-81
2022/02/08 07:24:01;;;;;;;4.90;2.17;;;;;;;;;;5027184;28;20178;-82
2022/02/08 07:26:27;;;;;;;5.70;2.10;;;;;;;;;;5034608;28;20183;-82
2022/02/08 07:28:52;;;;;;;4.65;2.22;;;;;;;;;;5060015;28;20277;-83
2022/02/08 07:31:24;;;;;;;2.50;1.90;;;;;;;;;;5012793;28;20210;-82
2022/02/08 07:33:57;;;;;;;4.90;2.45;;;;;;;;;;5027250;28;20863;-83
2022/02/08 07:38:51;;;;;;;2.40;1.93;;;;;;;;;;5010788;28;20631;-83
2022/02/08 07:43:48;;;;;;;3.88;2.85;;;;;;;;;;5009845;28;20266;-83
2022/02/08 07:46:15;;;;;;;4.40;2.60;;;;;;;;;;5026496;28;20211;-82
2022/02/08 07:48:41;;;;;;;6.30;2.88;;;;;;;;;;5026894;28;20202;-82
2022/02/08 07:51:09;;;;;;;4.13;2.50;;;;;;;;;;5026882;28;20191;-83
2022/02/08 07:53:35;;;;;;;3.78;1.90;;;;;;;;;;5034947;28;20445;-83
2022/02/08 07:56:01;;;;;;;8.63;2.33;;;;;;;;;;5035893;28;20237;-82
2022/02/08 07:58:29;;;;;;;3.35;2.00;;;;;;;;;;5026197;28;20505;-82
2022/02/08 08:00:55;;;;;;;2.80;2.50;;;;;;;;;;5026539;28;20214;-82
2022/02/08 08:03:21;;;;;;;5.82;2.38;;;;;;;;;;5022642;28;20182;-81
2022/02/08 08:05:48;;;;;;;2.73;2.53;;;;;;;;;;5022198;28;20250;-82
2022/02/08 08:08:14;;;;;;;7.07;4.15;;;;;;;;;;5047615;28;20952;-81
2022/02/08 08:10:45;;;;;;;6.28;4.45;;;;;;;;;;5029234;28;20175;-82
2022/02/08 08:13:12;;;;;;;7.82;3.92;;;;;;;;;;5042784;28;20190;-82
2022/02/08 08:16:12;;;;;;;6.65;3.15;;;;;;;;;;5010291;28;20178;-82
2022/02/08 08:21:03;;;;;;;2.60;2.40;;;;;;;;;;5007932;28;20206;-89
2022/02/08 08:23:28;;;;;;;4.97;2.47;;;;;;;;;;5035114;28;20215;-90
2022/02/08 08:25:55;;;;;;;3.47;2.10;;;;;;;;;;5035729;28;20190;-92
2022/02/08 08:28:21;;;;;;;3.20;2.17;;;;;;;;;;5051631;28;20421;-92
2022/02/08 08:30:47;;;;;;;4.78;2.53;;;;;;;;;;5033771;28;20205;-89
2022/02/08 08:33:13;;;;;;;4.13;2.83;;;;;;;;;;5033535;28;20433;-88
2022/02/08 08:35:40;;;;;;;2.92;2.72;;;;;;;;;;5035918;28;20453;-85
2022/02/08 08:38:08;;;;;;;3.90;3.15;;;;;;;;;;5036607;28;20245;-88
2022/02/08 08:53:12;;;;;;;6.30;3.00;;;;;;;;;;5028820;28;20186;-90
2022/02/08 08:55:38;;;;;;;3.10;2.50;;;;;;;;;;5032171;28;20507;-87
2022/02/08 08:58:05;;;;;;;3.97;2.85;;;;;;;;;;5022732;28;20179;-90
2022/02/08 09:00:31;;;;;;;3.22;2.78;;;;;;;;;;5037897;28;20230;-89
2022/02/08 09:02:57;;;;;;;4.18;3.03;;;;;;;;;;5026772;28;20180;-89
2022/02/08 09:05:23;;;;;;;8.63;3.83;;;;;;;;;;5041869;28;20193;-89
2022/02/08 09:07:49;;;;;;;3.25;2.65;;;;;;;;;;5059461;28;20472;-90
2022/02/08 09:10:22;;;;;;;5.85;3.45;;;;;;;;;;5030303;28;20266;-92
2022/02/08 09:20:44;;;;;;;3.92;3.45;;;;;;;;;;5034745;28;20190;-90
2022/02/08 09:23:23;;;;;;;5.55;3.50;;;;;;;;;;5024730;28;20196;-90
2022/02/08 09:26:00;;;;;;;5.88;3.40;;;;;;;;;;5064736;28;20180;-94
2022/02/08 09:28:41;;;;;;;8.10;4.53;;;;;;;;;;5026138;28;20167;-90
2022/02/08 09:31:10;;;;;;;5.35;3.90;;;;;;;;;;5031356;28;20186;-90
2022/02/08 09:33:36;;;;;;;8.07;4.00;;;;;;;;;;5025728;28;20190;-89
2022/02/08 09:36:02;;;;;;;3.53;3.22;;;;;;;;;;5026272;28;20205;-89
2022/02/08 09:38:31;;;;;;;5.43;3.33;;;;;;;;;;5041629;28;20240;-90
2022/02/08 09:41:00;;;;;;;8.13;3.15;;;;;;;;;;5038402;28;20277;-90
2022/02/08 09:43:28;;;;;;;5.28;3.30;;;;;;;;;;5053067;28;20176;-91
2022/02/08 09:45:54;;;;;;;5.70;3.75;;;;;;;;;;5027584;28;20183;-89
2022/02/08 09:48:44;;;;;;;4.80;2.97;;;;;;;;;;5038781;28;20187;-89
2022/02/08 09:51:07;;;;;;;3.50;3.10;;;;;;;;;;5010035;28;20187;-90
2022/02/08 09:53:35;;;;;;;5.15;3.90;;;;;;;;;;5028647;28;20253;-90
2022/02/08 09:56:02;;;;;;;8.23;5.20;;;;;;;;;;5052937;28;20560;-90
2022/02/08 09:58:28;;;;;;;7.40;4.82;;;;;;;;;;5018533;28;20192;-90
2022/02/08 10:01:26;;;;;;;5.65;3.92;;;;;;;;;;5015762;28;20215;-91
2022/02/08 10:03:57;;;;;;;8.73;4.30;;;;;;;;;;5038144;28;20197;-90
2022/02/08 10:06:24;;;;;;;10.65;4.00;;;;;;;;;;5040550;28;20554;-89
2022/02/08 10:09:03;;;;;;;6.43;3.33;;;;;;;;;;5023696;28;20585;-90
2022/02/08 10:11:40;;;;;;;7.70;4.03;;;;;;;;;;5024955;28;20264;-89
2022/02/08 10:14:20;;;;;;;6.43;4.13;;;;;;;;;;5024042;28;20221;-89
2022/02/08 10:22:40;;;;;;;4.25;3.45;;;;;;;;;;5041258;28;20247;-89
2022/02/08 10:25:13;;;;;;;6.15;3.75;;;;;;;;;;5021939;28;20182;-91
2022/02/08 10:27:49;;;;;;;4.50;3.17;;;;;;;;;;5022473;28;20257;-91
2022/02/08 10:30:41;;;;;;;4.32;2.78;;;;;;;;;;5024822;28;20182;-87
2022/02/08 10:38:49;;;;;;;6.40;3.30;;;;;;;;;;5038831;28;20652;-85
2022/02/08 10:41:15;;;;;;;6.30;3.33;;;;;;;;;;5033506;28;20231;-87
2022/02/08 10:43:42;;;;;;;6.70;2.97;;;;;;;;;;5053760;28;20241;-90
2022/02/08 10:46:21;;;;;;;3.58;3.08;;;;;;;;;;5024217;28;20193;-92
2022/02/08 10:48:47;;;;;;;4.43;2.45;;;;;;;;;;5022207;28;20250;-93
2022/02/08 10:51:15;;;;;;;4.15;3.33;;;;;;;;;;5039535;28;20186;-91
2022/02/08 10:53:53;;;;;;;2.63;2.42;;;;;;;;;;5039865;28;20218;-90
2022/02/08 10:56:27;;;;;;;4.38;2.50;;;;;;;;;;5041666;28;20178;-90
2022/02/08 10:59:07;;;;;;;4.57;3.05;;;;;;;;;;5049953;28;20432;-92
2022/02/08 11:01:44;;;;;;;3.90;2.85;;;;;;;;;;5025376;28;20209;-93
2022/02/08 11:04:17;;;;;;;3.10;2.80;;;;;;;;;;5045116;28;20213;-93
2022/02/08 11:07:08;;;;;;;5.60;3.58;;;;;;;;;;5044432;28;20184;-91
2022/02/08 11:09:56;;;;;;;3.00;2.38;;;;;;;;;;5022102;28;20204;-83
2022/02/08 11:12:39;;;;;;;3.38;2.90;;;;;;;;;;5020850;28;20183;-93
2022/02/08 11:15:30;;;;;;;5.05;2.22;;;;;;;;;;5009617;28;20187;-85
2022/02/08 11:20:46;;;;;;;3.25;2.92;;;;;;;;;;5017671;28;20225;-89
2022/02/08 11:23:33;;;;;;;2.83;2.40;;;;;;;;;;5023127;28;20183;-93
2022/02/08 11:26:00;;;;;;;3.58;2.75;;;;;;;;;;5006208;28;20186;-91
2022/02/08 11:28:48;;;;;;;4.40;3.05;;;;;;;;;;5027042;28;20198;-91
2022/02/08 11:31:26;;;;;;;4.95;2.92;;;;;;;;;;5044383;28;20759;-93
2022/02/08 11:47:26;;;;;;;5.72;2.83;;;;;;;;;;5023360;28;20174;-84
2022/02/08 11:50:10;;;;;;;3.20;2.90;;;;;;;;;;5037321;28;20182;-95
2022/02/08 11:55:26;;;;;;;2.75;2.45;;;;;;;;;;5016125;28;20195;-84
2022/02/08 12:00:44;;;;;;;6.30;2.90;;;;;;;;;;5017673;28;20356;-89
2022/02/08 12:08:59;;;;;;;8.10;4.20;;;;;;;;;;4993394;28;20190;-91
2022/02/08 12:28:41;;;;;;;4.78;3.17;;;;;;;;;;4906686;29;20258;-83
2022/02/08 12:33:32;;;;;;;6.43;3.00;;;;;;;;;;4902761;29;20198;-88
2022/02/08 12:57:53;;;;;;;1.85;1.65;;;;;;;;;;4935965;29;20194;-90
2022/02/08 13:00:37;;;;;;;2.33;2.13;;;;;;;;;;4937727;29;20205;-90
2022/02/08 14:31:53;;;;;;;3.78;3.40;;;;;;;;;;5025429;28;20284;-83
2022/02/08 15:09:53;;;;;;;4.72;2.38;;;;;;;;;;4978162;28;20188;-90
2022/02/08 15:12:21;;;;;;;2.60;2.30;;;;;;;;;;4994927;28;20187;-87
2022/02/08 15:14:54;;;;;;;3.38;2.60;;;;;;;;;;4994900;28;20187;-89
2022/02/08 15:17:20;;;;;;;2.28;1.90;;;;;;;;;;4963328;28;20219;-90
2022/02/08 15:19:49;;;;;;;4.28;2.70;;;;;;;;;;4981959;28;20274;-83
2022/02/08 15:22:16;;;;;;;3.25;2.95;;;;;;;;;;4999449;28;20246;-90
2022/02/08 15:24:42;;;;;;;2.83;2.63;;;;;;;;;;4962679;28;20188;-87
2022/02/08 15:27:11;;;;;;;5.50;3.60;;;;;;;;;;4995065;28;20358;-88
2022/02/08 15:29:37;;;;;;;3.72;2.70;;;;;;;;;;4995752;28;20239;-91
2022/02/08 15:32:05;;;;;;;3.35;2.72;;;;;;;;;;4998688;28;20664;-88
2022/02/08 15:34:31;;;;;;;3.75;2.58;;;;;;;;;;4983288;28;20184;-88
2022/02/08 15:36:58;;;;;;;2.50;2.30;;;;;;;;;;5030730;28;20191;-88
2022/02/08 15:39:24;;;;;;;4.90;3.55;;;;;;;;;;5043903;28;20253;-88
2022/02/08 15:41:50;;;;;;;5.18;3.17;;;;;;;;;;5041655;28;20210;-90
2022/02/08 15:44:23;;;;;;;3.08;2.75;;;;;;;;;;5022827;28;20170;-87
2022/02/08 15:46:53;;;;;;;4.07;2.60;;;;;;;;;;5009676;28;20167;-87
2022/02/08 15:49:20;;;;;;;3.47;2.95;;;;;;;;;;5055064;28;20179;-87
2022/02/08 15:51:49;;;;;;;3.33;3.13;;;;;;;;;;5016960;28;20250;-90
2022/02/08 15:58:06;;;;;;;3.58;3.28;;;;;;;;;;5011752;28;20600;-89
2022/02/08 16:08:14;;;;;;;3.45;3.13;;;;;;;;;;4962208;28;20184;-89
2022/02/08 16:10:55;;;;;;;4.15;3.63;;;;;;;;;;4961723;28;20180;-88
2022/02/08 16:18:41;;;;;;;5.13;4.63;;;;;;;;;;4959610;28;20450;-89
2022/02/08 16:50:25;;;;;;;4.32;3.92;;;;;;;;;;5020923;28;20187;-86
2022/02/08 16:55:28;;;;;;;4.13;3.80;;;;;;;;;;5011938;28;20669;-86
2022/02/08 16:58:08;;;;;;;3.95;3.65;;;;;;;;;;5051158;28;20440;-88
2022/02/08 17:00:36;;;;;;;6.25;3.95;;;;;;;;;;5035991;28;20174;-86
2022/02/08 17:03:06;;;;;;;4.50;4.10;;;;;;;;;;5032751;28;20182;-89
2022/02/08 17:05:32;;;;;;;5.30;4.28;;;;;;;;;;5035917;28;20186;-87
2022/02/08 17:07:58;;;;;;;5.27;4.53;;;;;;;;;;5024983;28;20258;-87
2022/02/08 17:10:47;;;;;;;6.60;4.78;;;;;;;;;;5018727;28;20433;-87
2022/02/08 17:13:29;;;;;;;4.97;4.57;;;;;;;;;;5033617;28;20179;-87
2022/02/08 17:47:41;;;;;;;6.25;4.80;;;;;;;;;;5025166;28;20190;-85
2022/02/08 17:50:08;;;;;;;5.13;4.60;;;;;;;;;;5024694;28;20171;-84
2022/02/08 17:52:36;;;;;;;7.53;5.60;;;;;;;;;;5041269;28;20198;-84
2022/02/08 17:55:02;;;;;;;6.05;5.45;;;;;;;;;;5023704;28;20186;-85
2022/02/08 17:57:28;;;;;;;5.10;4.60;;;;;;;;;;5034493;28;20190;-85
2022/02/08 17:59:54;;;;;;;5.57;5.03;;;;;;;;;;5022182;28;20257;-86
2022/02/08 18:02:21;;;;;;;6.78;5.20;;;;;;;;;;5014814;28;20635;-85
2022/02/08 18:04:49;;;;;;;6.95;6.25;;;;;;;;;;5028969;28;20189;-85
2022/02/08 18:07:19;;;;;;;6.95;6.20;;;;;;;;;;5013843;28;20246;-84
2022/02/08 18:09:46;;;;;;;6.55;5.78;;;;;;;;;;5058306;28;20195;-83
2022/02/08 18:12:13;;;;;;;7.72;5.53;;;;;;;;;;5026997;28;20249;-86
2022/02/08 18:14:43;;;;;;;8.18;5.88;;;;;;;;;;5037845;28;20245;-86
2022/02/08 18:17:17;;;;;;;6.53;5.82;;;;;;;;;;5021939;28;20534;-85
2022/02/08 18:19:50;;;;;;;7.32;6.57;;;;;;;;;;5035756;28;20203;-87
2022/02/08 18:27:32;;;;;;;7.13;6.10;;;;;;;;;;5014703;28;20190;-86
2022/02/08 18:55:42;;;;;;;13.18;6.95;;;;;;;;;;5023810;28;20198;-85
2022/02/08 19:06:36;;;;;;;5.47;4.95;;;;;;;;;;5007001;28;20208;-87
2022/02/08 19:15:46;;;;;;;5.78;4.97;;;;;;;;;;5013484;28;20268;-85
2022/02/08 19:23:35;;;;;;;5.20;4.70;;;;;;;;;;5008548;28;20289;-85
2022/02/08 19:26:03;;;;;;;6.00;4.55;;;;;;;;;;5022702;28;20238;-85
2022/02/08 19:28:29;;;;;;;6.40;4.72;;;;;;;;;;5012799;28;20182;-87
2022/02/08 19:30:55;;;;;;;4.85;4.35;;;;;;;;;;5011984;28;20187;-86
2022/02/08 19:33:22;;;;;;;4.95;4.00;;;;;;;;;;5053694;28;20282;-85
2022/02/08 19:35:48;;;;;;;3.80;3.50;;;;;;;;;;5020413;28;20215;-86
2022/02/08 19:38:17;;;;;;;6.78;4.57;;;;;;;;;;5022251;28;20246;-85
2022/02/08 19:40:43;;;;;;;6.00;4.18;;;;;;;;;;5039350;28;20186;-84
2022/02/08 19:43:09;;;;;;;4.80;4.40;;;;;;;;;;5038032;28;20194;-85
2022/02/08 19:45:44;;;;;;;5.40;4.03;;;;;;;;;;5032833;28;20205;-85
2022/02/08 19:48:10;;;;;;;4.25;3.85;;;;;;;;;;5011587;28;20181;-83
2022/02/08 19:50:36;;;;;;;4.47;4.07;;;;;;;;;;5059824;28;20190;-84
2022/02/08 19:53:07;;;;;;;4.68;4.18;;;;;;;;;;5019409;28;20231;-84
2022/02/08 19:58:03;;;;;;;5.57;4.28;;;;;;;;;;5015069;28;20190;-85
2022/02/08 20:00:32;;;;;;;6.57;4.50;;;;;;;;;;5019250;28;20175;-84
2022/02/08 20:03:00;;;;;;;5.65;5.10;;;;;;;;;;5010901;28;20186;-84
2022/02/08 20:05:30;;;;;;;5.00;4.60;;;;;;;;;;5037042;28;20190;-84
2022/02/08 20:07:56;;;;;;;5.68;5.18;;;;;;;;;;5037218;28;20174;-84
2022/02/08 20:10:22;;;;;;;5.97;4.93;;;;;;;;;;5018172;28;20194;-84
2022/02/08 20:12:48;;;;;;;5.20;4.70;;;;;;;;;;5017153;28;20178;-84
2022/02/08 20:15:14;;;;;;;5.75;5.13;;;;;;;;;;5015292;28;20195;-86
2022/02/08 20:17:40;;;;;;;7.28;6.20;;;;;;;;;;5031949;28;20179;-85
2022/02/08 20:20:14;;;;;;;8.50;6.82;;;;;;;;;;5052360;28;20190;-86
2022/02/08 20:22:47;;;;;;;11.52;9.70;;;;;;;;;;5050444;28;20233;-85
2022/02/08 20:25:15;;;;;;;16.05;12.35;;;;;;;;;;5048487;28;20185;-85
2022/02/08 20:27:54;;;;;;;21.65;11.35;;;;;;;;;;5052687;28;20182;-85
2022/02/08 20:30:25;;;;;;;15.32;11.55;;;;;;;;;;5021522;28;20201;-85
2022/02/08 20:32:53;;;;;;;14.90;11.15;;;;;;;;;;5065475;28;20276;-86
2022/02/08 20:35:20;;;;;;;14.20;11.75;;;;;;;;;;5037427;28;20593;-86
2022/02/08 20:37:47;;;;;;;15.60;12.52;;;;;;;;;;5019945;28;20218;-86
2022/02/08 20:40:13;;;;;;;22.33;13.45;;;;;;;;;;5027625;28;20213;-85
2022/02/08 20:42:39;;;;;;;13.60;11.35;;;;;;;;;;5054258;28;20212;-85
2022/02/08 20:45:06;;;;;;;16.73;11.85;;;;;;;;;;5057885;28;20213;-84
2022/02/08 20:47:34;;;;;;;11.77;9.93;;;;;;;;;;5057971;28;20182;-85
2022/02/08 20:50:14;;;;;;;10.63;8.98;;;;;;;;;;5026170;28;20171;-85
2022/02/08 20:52:48;;;;;;;10.57;9.57;;;;;;;;;;5020863;28;20174;-86
2022/02/08 20:55:16;;;;;;;10.65;9.20;;;;;;;;;;5023239;28;20194;-84
2022/02/08 20:57:50;;;;;;;12.23;9.73;;;;;;;;;;5035929;28;20190;-86
2022/02/08 21:00:16;;;;;;;10.90;9.65;;;;;;;;;;5047753;28;20190;-85
2022/02/08 21:02:55;;;;;;;10.70;9.25;;;;;;;;;;5012189;28;20245;-84
2022/02/08 21:07:53;;;;;;;13.90;9.80;;;;;;;;;;5027109;28;20206;-84
2022/02/08 21:10:20;;;;;;;13.55;9.95;;;;;;;;;;5015089;28;20201;-85
2022/02/08 21:13:01;;;;;;;14.63;10.05;;;;;;;;;;5019595;28;20189;-86
2022/02/08 21:15:28;;;;;;;13.13;10.50;;;;;;;;;;5026225;28;20183;-84
2022/02/08 21:17:54;;;;;;;10.35;9.35;;;;;;;;;;5063138;28;20589;-85
2022/02/08 21:20:20;;;;;;;10.68;8.90;;;;;;;;;;5024309;28;20190;-86
2022/02/08 21:22:46;;;;;;;14.05;8.80;;;;;;;;;;5021731;28;20218;-86
2022/02/08 21:25:13;;;;;;;9.80;8.45;;;;;;;;;;5034666;28;20201;-86
2022/02/08 21:27:44;;;;;;;11.25;10.05;;;;;;;;;;5047842;28;20267;-86
2022/02/08 21:33:15;;;;;;;11.07;9.27;;;;;;;;;;5025059;28;20569;-83
2022/02/08 21:49:46;;;;;;;12.73;9.35;;;;;;;;;;4983962;28;20219;-84
2022/02/08 21:52:28;;;;;;;13.55;9.57;;;;;;;;;;4961252;28;20235;-88
2022/02/08 21:54:54;;;;;;;13.82;10.65;;;;;;;;;;4975330;28;20205;-88
2022/02/08 21:57:22;;;;;;;18.60;11.38;;;;;;;;;;4979707;28;20192;-87
2022/02/08 21:59:48;;;;;;;18.15;10.23;;;;;;;;;;4966455;28;20191;-88
2022/02/08 22:02:15;;;;;;;12.35;9.80;;;;;;;;;;4967764;28;20219;-83
2022/02/08 22:04:41;;;;;;;9.65;8.48;;;;;;;;;;4964699;28;20216;-87
2022/02/08 22:07:13;;;;;;;12.27;9.57;;;;;;;;;;4973292;28;20204;-88
2022/02/08 22:09:41;;;;;;;10.63;9.05;;;;;;;;;;4976045;28;20194;-88
2022/02/08 22:20:43;;;;;;;10.90;9.07;;;;;;;;;;4967318;28;20187;-88
2022/02/08 22:23:22;;;;;;;9.65;8.27;;;;;;;;;;4981247;28;20247;-87
2022/02/08 22:33:19;;;;;;;14.23;9.23;;;;;;;;;;5028118;28;20332;-88
2022/02/08 22:35:46;;;;;;;11.80;8.93;;;;;;;;;;5040136;28;20201;-90
2022/02/08 22:38:20;;;;;;;9.93;8.05;;;;;;;;;;5025833;28;20264;-89
2022/02/08 22:40:52;;;;;;;10.52;8.73;;;;;;;;;;5056744;28;20194;-88
2022/02/08 22:43:22;;;;;;;9.80;8.38;;;;;;;;;;5018727;28;20185;-89
2022/02/08 22:45:48;;;;;;;11.65;9.30;;;;;;;;;;5020626;28;20187;-89
2022/02/08 22:48:14;;;;;;;11.68;10.13;;;;;;;;;;5039087;28;20193;-88
2022/02/08 22:50:40;;;;;;;14.65;10.50;;;;;;;;;;5054798;28;20283;-88
2022/02/08 22:53:06;;;;;;;14.02;11.02;;;;;;;;;;5050612;28;20182;-88
2022/02/08 22:55:33;;;;;;;15.77;11.73;;;;;;;;;;5032853;28;20183;-89
2022/02/08 22:58:18;;;;;;;10.65;9.35;;;;;;;;;;5030204;28;20183;-86
2022/02/08 23:00:45;;;;;;;10.70;9.60;;;;;;;;;;5037860;28;20209;-87
2022/02/08 23:03:13;;;;;;;12.57;10.07;;;;;;;;;;5027905;28;20179;-83
2022/02/08 23:05:39;;;;;;;12.73;9.50;;;;;;;;;;5015523;28;20272;-89
2022/02/08 23:08:05;;;;;;;13.52;10.77;;;;;;;;;;5023608;28;20181;-90
2022/02/08 23:13:19;;;;;;;14.60;10.77;;;;;;;;;;5014804;28;20299;-90
2022/02/08 23:37:27;;;;;;;12.15;8.75;;;;;;;;;;5009154;28;20483;-89
2022/02/08 23:39:53;;;;;;;10.70;9.48;;;;;;;;;;5014738;28;20369;-89
2022/02/08 23:42:22;;;;;;;12.43;10.27;;;;;;;;;;5033978;28;20238;-90